createdAt,value
2018-09-23T00:00:14.438Z,80.33
2018-09-23T00:02:43.818Z,80.45
2018-09-23T00:05:13.247Z,79.60
2018-09-23T00:07:42.659Z,80.23
2018-09-23T00:10:12.293Z,80.10
2018-09-23T00:12:41.906Z,80.90
2018-09-23T00:15:11.316Z,80.49
2018-09-23T00:17:40.657Z,79.99
2018-09-23T00:20:10.011Z,80.38
2018-09-23T00:22:39.443Z,79.59
2018-09-23T00:25:08.916Z,79.91
2018-09-23T00:27:38.463Z,80.26
2018-09-23T00:30:07.971Z,81.04
2018-09-23T00:32:37.281Z,80.45
2018-09-23T00:35:06.721Z,81.64
2018-09-23T00:37:36.145Z,81.99
2018-09-23T00:40:06.500Z,82.27
2018-09-23T00:42:36.003Z,82.06
2018-09-23T00:45:05.414Z,81.44
2018-09-23T00:47:34.948Z,81.66
2018-09-23T00:50:04.877Z,82.28
2018-09-23T00:52:34.339Z,81.38
2018-09-23T00:55:03.829Z,81.13
2018-09-23T00:57:33.319Z,80.74
2018-09-23T01:00:02.730Z,81.15
2018-09-23T01:02:32.148Z,82.49
2018-09-23T01:05:01.836Z,83.19
2018-09-23T01:07:31.364Z,82.41
2018-09-23T01:10:00.867Z,81.98
2018-09-23T01:12:30.326Z,81.07
2018-09-23T01:14:59.677Z,80.72
2018-09-23T01:17:29.353Z,79.92
2018-09-23T01:20:01.490Z,80.38
2018-09-23T01:22:30.858Z,80.67
2018-09-23T01:25:00.248Z,80.54
2018-09-23T01:27:29.613Z,79.68
2018-09-23T01:29:59.032Z,80.15
2018-09-23T01:32:28.392Z,80.91
2018-09-23T01:34:57.788Z,81.82
2018-09-23T01:37:27.209Z,80.99
2018-09-23T01:39:56.633Z,80.75
2018-09-23T01:42:26.713Z,80.34
2018-09-23T01:44:56.191Z,80.14
2018-09-23T01:47:25.720Z,80.94
2018-09-23T01:49:55.461Z,81.01
2018-09-23T01:52:24.983Z,81.25
2018-09-23T01:54:54.301Z,80.90
2018-09-23T01:57:24.435Z,82.28
2018-09-23T01:59:54.125Z,82.12
2018-09-23T02:02:23.553Z,81.36
2018-09-23T02:04:53.254Z,80.98
2018-09-23T02:07:22.635Z,81.22
2018-09-23T02:09:51.998Z,80.85
2018-09-23T02:12:21.406Z,81.70
2018-09-23T02:14:50.766Z,81.13
2018-09-23T02:17:20.170Z,80.67
2018-09-23T02:19:49.566Z,80.76
2018-09-23T02:22:19.049Z,81.12
2018-09-23T02:24:48.433Z,81.56
2018-09-23T02:27:18.571Z,81.76
2018-09-23T02:29:47.965Z,80.62
2018-09-23T02:32:17.368Z,79.90
2018-09-23T02:34:47.055Z,80.02
2018-09-23T02:37:16.376Z,79.81
2018-09-23T02:39:45.746Z,80.25
2018-09-23T02:42:15.281Z,80.20
2018-09-23T02:44:44.769Z,79.84
2018-09-23T02:47:14.252Z,79.82
2018-09-23T02:49:44.128Z,80.91
2018-09-23T02:52:13.484Z,81.09
2018-09-23T02:54:43.023Z,81.00
2018-09-23T02:57:12.522Z,80.26
2018-09-23T02:59:41.897Z,79.64
2018-09-23T03:02:11.343Z,79.82
2018-09-23T03:04:40.967Z,79.38
2018-09-23T03:07:10.546Z,79.36
2018-09-23T03:09:40.311Z,79.23
2018-09-23T03:12:10.119Z,78.09
2018-09-23T03:14:39.559Z,78.17
2018-09-23T03:17:09.054Z,77.42
2018-09-23T03:19:38.552Z,77.15
2018-09-23T03:22:07.933Z,77.85
2018-09-23T03:24:37.301Z,78.05
2018-09-23T03:27:06.821Z,77.69
2018-09-23T03:29:36.150Z,78.51
2018-09-23T03:32:05.524Z,78.78
2018-09-23T03:34:35.029Z,78.55
2018-09-23T03:37:04.511Z,78.18
2018-09-23T03:39:33.971Z,78.03
2018-09-23T03:42:03.415Z,78.56
2018-09-23T03:44:32.842Z,78.13
2018-09-23T03:47:02.243Z,77.87
2018-09-23T03:49:31.719Z,79.03
2018-09-23T03:52:01.130Z,81.35
2018-09-23T03:54:30.556Z,79.63
2018-09-23T03:57:00.200Z,80.11
2018-09-23T03:59:29.648Z,80.73
2018-09-23T04:01:59.012Z,80.74
2018-09-23T04:04:28.493Z,81.20
2018-09-23T04:06:57.898Z,80.12
2018-09-23T04:09:27.266Z,78.83
2018-09-23T04:11:56.729Z,79.51
2018-09-23T04:14:26.058Z,79.96
2018-09-23T04:16:55.428Z,79.73
2018-09-23T04:19:25.319Z,79.83
2018-09-23T04:21:54.703Z,78.85
2018-09-23T04:24:24.122Z,78.68
2018-09-23T04:26:53.556Z,78.62
2018-09-23T04:29:22.952Z,78.26
2018-09-23T04:31:52.292Z,78.78
2018-09-23T04:34:21.704Z,78.22
2018-09-23T04:36:51.077Z,78.11
2018-09-23T04:39:20.431Z,77.19
2018-09-23T04:41:50.254Z,77.42
2018-09-23T04:44:19.591Z,77.91
2018-09-23T04:46:48.921Z,77.81
2018-09-23T04:49:18.411Z,77.42
2018-09-23T04:51:52.634Z,78.72
2018-09-23T04:54:21.993Z,78.51
2018-09-23T04:56:51.438Z,79.55
2018-09-23T04:59:20.839Z,79.79
2018-09-23T05:01:50.290Z,79.99
2018-09-23T05:04:20.771Z,79.57
2018-09-23T05:06:50.150Z,79.34
2018-09-23T05:09:19.518Z,79.50
2018-09-23T05:11:48.871Z,78.85
2018-09-23T05:14:18.263Z,79.43
2018-09-23T05:16:47.688Z,78.54
2018-09-23T05:19:17.128Z,79.54
2018-09-23T05:21:46.484Z,79.69
2018-09-23T05:24:16.350Z,79.75
2018-09-23T05:26:45.848Z,79.23
2018-09-23T05:29:15.227Z,80.25
2018-09-23T05:31:44.659Z,80.74
2018-09-23T05:34:14.035Z,79.76
2018-09-23T05:36:43.398Z,79.49
2018-09-23T05:39:13.004Z,78.93
2018-09-23T05:41:42.554Z,79.17
2018-09-23T05:44:11.936Z,79.44
2018-09-23T05:46:41.913Z,78.50
2018-09-23T05:49:11.265Z,78.10
2018-09-23T05:51:40.741Z,78.10
2018-09-23T05:54:10.160Z,78.02
2018-09-23T05:56:39.582Z,78.66
2018-09-23T05:59:09.281Z,77.81
2018-09-23T06:01:38.785Z,78.55
2018-09-23T06:04:08.402Z,78.26
2018-09-23T06:06:37.806Z,79.49
2018-09-23T06:09:07.926Z,79.13
2018-09-23T06:11:37.309Z,79.26
2018-09-23T06:14:06.759Z,78.93
2018-09-23T06:16:36.347Z,79.68
2018-09-23T06:19:05.783Z,79.24
2018-09-23T06:21:35.396Z,79.01
2018-09-23T06:24:04.968Z,78.57
2018-09-23T06:26:34.872Z,78.31
2018-09-23T06:29:04.453Z,76.39
2018-09-23T06:31:34.400Z,76.42
2018-09-23T06:34:04.186Z,75.72
2018-09-23T06:36:34.020Z,75.00
2018-09-23T06:39:03.875Z,76.40
2018-09-23T06:41:33.554Z,75.71
2018-09-23T06:44:03.062Z,75.15
2018-09-23T06:46:32.548Z,74.67
2018-09-23T06:49:02.009Z,74.89
2018-09-23T06:51:31.491Z,74.63
2018-09-23T06:54:01.458Z,73.64
2018-09-23T06:56:30.968Z,72.71
2018-09-23T06:59:00.571Z,73.24
2018-09-23T07:01:30.113Z,73.78
2018-09-23T07:03:59.595Z,73.78
2018-09-23T07:06:29.124Z,73.42
2018-09-23T07:08:58.758Z,74.00
2018-09-23T07:11:28.305Z,74.92
2018-09-23T07:13:57.747Z,73.53
2018-09-23T07:16:27.702Z,70.91
2018-09-23T07:18:57.051Z,71.06
2018-09-23T07:21:26.433Z,72.43
2018-09-23T07:23:55.907Z,71.15
2018-09-23T07:26:25.547Z,71.36
2018-09-23T07:28:55.010Z,69.62
2018-09-23T07:31:24.410Z,68.20
2018-09-23T07:33:53.870Z,66.25
2018-09-23T07:36:23.246Z,68.23
2018-09-23T07:38:52.946Z,67.48
2018-09-23T07:41:22.383Z,67.80
2018-09-23T07:43:52.086Z,64.42
2018-09-23T07:46:22.668Z,63.08
2018-09-23T07:48:52.251Z,65.36
2018-09-23T07:51:22.184Z,65.01
2018-09-23T07:53:51.681Z,64.55
2018-09-23T07:56:21.219Z,65.23
2018-09-23T07:58:50.664Z,64.93
2018-09-23T08:01:20.270Z,65.93
2018-09-23T08:03:49.639Z,66.90
2018-09-23T08:06:19.115Z,66.53
2018-09-23T08:08:48.475Z,64.66
2018-09-23T08:11:17.842Z,66.23
2018-09-23T08:13:47.439Z,64.92
2018-09-23T08:16:16.615Z,63.14
2018-09-23T08:18:46.049Z,64.18
2018-09-23T08:21:15.525Z,64.41
2018-09-23T08:23:45.238Z,61.66
2018-09-23T08:26:14.638Z,61.05
2018-09-23T08:28:44.176Z,59.23
2018-09-23T08:31:13.622Z,59.19
2018-09-23T08:33:42.973Z,58.63
2018-09-23T08:36:12.414Z,58.97
2018-09-23T08:38:41.786Z,59.05
2018-09-23T08:41:11.148Z,59.15
2018-09-23T08:43:40.560Z,59.11
2018-09-23T08:46:10.440Z,58.32
2018-09-23T08:48:39.967Z,58.30
2018-09-23T08:51:09.363Z,57.32
2018-09-23T08:53:39.086Z,57.49
2018-09-23T08:56:08.489Z,57.21
2018-09-23T08:58:38.091Z,56.28
2018-09-23T09:01:07.703Z,56.07
2018-09-23T09:03:37.162Z,55.18
2018-09-23T09:06:06.640Z,54.27
2018-09-23T09:08:36.210Z,55.38
2018-09-23T09:11:05.807Z,55.59
2018-09-23T09:13:36.004Z,56.18
2018-09-23T09:16:05.746Z,55.07
2018-09-23T09:18:35.280Z,54.36
2018-09-23T09:21:04.580Z,53.70
2018-09-23T09:23:34.093Z,54.81
2018-09-23T09:26:03.624Z,55.14
2018-09-23T09:28:33.114Z,55.94
2018-09-23T09:31:03.014Z,55.10
2018-09-23T09:33:32.487Z,55.37
2018-09-23T09:36:01.897Z,54.89
2018-09-23T09:38:31.314Z,54.09
2018-09-23T09:41:00.768Z,53.79
2018-09-23T09:43:30.211Z,51.20
2018-09-23T09:45:59.639Z,50.23
2018-09-23T09:48:28.978Z,49.56
2018-09-23T09:50:58.316Z,48.55
2018-09-23T09:53:27.854Z,48.03
2018-09-23T09:55:57.460Z,46.95
2018-09-23T09:58:26.855Z,45.39
2018-09-23T10:00:56.231Z,45.62
2018-09-23T10:03:25.643Z,46.50
2018-09-23T10:05:55.053Z,50.37
2018-09-23T10:08:24.450Z,51.05
2018-09-23T10:10:53.860Z,50.50
2018-09-23T10:13:23.323Z,50.37
2018-09-23T10:15:53.155Z,53.25
2018-09-23T10:18:22.592Z,53.08
2018-09-23T10:20:52.940Z,52.90
2018-09-23T10:23:29.105Z,52.94
2018-09-23T10:25:59.329Z,53.64
2018-09-23T10:28:29.911Z,53.60
2018-09-23T10:31:00.777Z,53.80
2018-09-23T10:33:30.253Z,54.47
2018-09-23T10:36:00.273Z,54.36
2018-09-23T10:38:29.773Z,53.81
2018-09-23T10:40:59.521Z,53.01
2018-09-23T10:43:28.989Z,52.41
2018-09-23T10:45:58.467Z,53.10
2018-09-23T10:48:27.884Z,54.89
2018-09-23T10:51:01.253Z,55.94
2018-09-23T10:53:32.408Z,55.51
2018-09-23T10:56:02.245Z,55.45
2018-09-23T10:58:31.659Z,56.75
2018-09-23T11:01:00.989Z,58.88
2018-09-23T11:03:30.375Z,58.73
2018-09-23T11:05:59.791Z,58.30
2018-09-23T11:08:29.160Z,57.83
2018-09-23T11:10:58.531Z,57.40
2018-09-23T11:13:27.896Z,57.58
2018-09-23T11:15:57.277Z,57.15
2018-09-23T11:18:27.559Z,58.32
2018-09-23T11:20:56.929Z,59.44
2018-09-23T11:23:26.484Z,59.89
2018-09-23T11:25:55.802Z,60.31
2018-09-23T11:28:25.269Z,61.22
2018-09-23T11:30:54.612Z,61.58
2018-09-23T11:33:24.338Z,62.49
2018-09-23T11:35:53.825Z,62.82
2018-09-23T11:38:23.244Z,63.15
2018-09-23T11:40:52.962Z,61.84
2018-09-23T11:43:22.395Z,61.53
2018-09-23T11:45:51.949Z,60.37
2018-09-23T11:48:21.401Z,59.54
2018-09-23T11:50:50.896Z,58.10
2018-09-23T11:53:20.295Z,57.12
2018-09-23T11:55:49.809Z,56.91
2018-09-23T11:58:19.272Z,57.07
2018-09-23T12:00:53.671Z,56.87
2018-09-23T12:03:23.080Z,57.32
2018-09-23T12:05:52.444Z,56.48
2018-09-23T12:08:21.959Z,56.76
2018-09-23T12:10:51.418Z,57.76
2018-09-23T12:13:20.798Z,58.45
2018-09-23T12:15:50.241Z,59.36
2018-09-23T12:18:19.722Z,59.31
2018-09-23T12:20:49.621Z,60.12
2018-09-23T12:23:19.027Z,61.59
2018-09-23T12:25:48.561Z,61.15
2018-09-23T12:28:17.969Z,62.16
2018-09-23T12:30:47.366Z,62.12
2018-09-23T12:33:16.887Z,61.97
2018-09-23T12:35:46.430Z,62.09
2018-09-23T12:40:44.915Z,60.29
2018-09-23T12:43:14.788Z,57.69
2018-09-23T12:45:44.194Z,57.85
2018-09-23T12:48:13.536Z,55.74
2018-09-23T12:50:42.919Z,52.41
2018-09-23T12:53:12.260Z,52.97
2018-09-23T12:55:41.672Z,50.66
2018-09-23T12:58:11.067Z,51.07
2018-09-23T13:00:40.505Z,48.58
2018-09-23T13:03:09.946Z,48.13
2018-09-23T13:05:39.981Z,47.61
2018-09-23T13:08:09.435Z,47.47
2018-09-23T13:10:39.396Z,45.89
2018-09-23T13:13:08.815Z,47.10
2018-09-23T13:15:38.391Z,47.34
2018-09-23T13:18:07.823Z,47.82
2018-09-23T13:20:37.234Z,47.18
2018-09-23T13:23:06.671Z,46.98
2018-09-23T13:25:36.287Z,47.15
2018-09-23T13:28:06.107Z,47.56
2018-09-23T13:30:35.527Z,46.70
2018-09-23T13:33:05.179Z,48.12
2018-09-23T13:35:34.800Z,48.62
2018-09-23T13:38:04.268Z,48.61
2018-09-23T13:40:33.779Z,48.20
2018-09-23T13:43:03.308Z,49.91
2018-09-23T13:45:32.681Z,50.64
2018-09-23T13:48:02.145Z,50.89
2018-09-23T13:50:32.098Z,52.23
2018-09-23T13:53:01.474Z,50.36
2018-09-23T13:55:30.978Z,54.42
2018-09-23T13:58:00.393Z,52.46
2018-09-23T14:00:29.781Z,54.90
2018-09-23T14:02:59.104Z,57.91
2018-09-23T14:05:28.510Z,57.54
2018-09-23T14:07:57.807Z,58.26
2018-09-23T14:10:27.197Z,58.85
2018-09-23T14:12:57.045Z,58.14
2018-09-23T14:15:26.464Z,56.87
2018-09-23T14:17:55.981Z,54.64
2018-09-23T14:20:25.472Z,54.99
2018-09-23T14:22:54.843Z,57.44
2018-09-23T14:25:24.232Z,56.08
2018-09-23T14:27:53.700Z,58.06
2018-09-23T14:30:23.187Z,57.83
2018-09-23T14:32:52.562Z,55.08
2018-09-23T14:35:22.403Z,53.74
2018-09-23T14:37:52.092Z,53.29
2018-09-23T14:40:21.925Z,54.42
2018-09-23T14:42:51.396Z,54.07
2018-09-23T14:45:20.787Z,55.87
2018-09-23T14:47:50.207Z,56.66
2018-09-23T14:50:19.675Z,58.49
2018-09-23T14:52:49.090Z,57.33
2018-09-23T14:55:18.541Z,57.64
2018-09-23T14:57:48.254Z,58.36
2018-09-23T15:00:17.723Z,59.41
2018-09-23T15:02:47.167Z,59.47
2018-09-23T15:05:16.775Z,61.24
2018-09-23T15:07:46.198Z,61.20
2018-09-23T15:10:15.545Z,59.42
2018-09-23T15:12:45.025Z,60.32
2018-09-23T15:15:14.436Z,60.28
2018-09-23T15:17:43.916Z,60.97
2018-09-23T15:20:13.415Z,62.91
2018-09-23T15:22:43.033Z,63.32
2018-09-23T15:25:12.426Z,65.06
2018-09-23T15:27:41.765Z,64.53
2018-09-23T15:30:11.165Z,65.95
2018-09-23T15:32:40.535Z,67.12
2018-09-23T15:35:10.217Z,66.98
2018-09-23T15:37:39.621Z,67.12
2018-09-23T15:40:09.104Z,68.30
2018-09-23T15:42:38.664Z,68.61
2018-09-23T15:45:08.107Z,68.49
2018-09-23T15:47:37.555Z,68.82
2018-09-23T15:50:06.963Z,68.35
2018-09-23T15:52:36.376Z,67.63
2018-09-23T15:55:05.766Z,69.03
2018-09-23T15:57:35.326Z,68.18
2018-09-23T16:00:05.404Z,67.74
2018-09-23T16:02:34.809Z,67.87
2018-09-23T16:05:04.518Z,68.33
2018-09-23T16:07:33.956Z,69.32
2018-09-23T16:10:03.357Z,68.49
2018-09-23T16:12:32.779Z,69.16
2018-09-23T16:15:02.131Z,69.91
2018-09-23T16:17:31.617Z,69.45
2018-09-23T16:20:01.123Z,68.81
2018-09-23T16:22:30.663Z,69.27
2018-09-23T16:25:00.106Z,68.29
2018-09-23T16:27:30.014Z,68.59
2018-09-23T16:29:59.640Z,68.44
2018-09-23T16:32:29.341Z,67.67
2018-09-23T16:34:59.193Z,68.42
2018-09-23T16:37:28.864Z,68.19
2018-09-23T16:39:58.926Z,68.17
2018-09-23T16:42:28.339Z,68.58
2018-09-23T16:44:57.812Z,68.45
2018-09-23T16:47:28.142Z,68.92
2018-09-23T16:49:58.936Z,68.28
2018-09-23T16:52:28.584Z,68.53
2018-09-23T16:54:58.130Z,69.72
2018-09-23T16:57:27.654Z,69.44
2018-09-23T16:59:57.015Z,67.45
2018-09-23T17:02:26.471Z,67.87
2018-09-23T17:04:56.126Z,67.30
2018-09-23T17:07:27.294Z,66.42
2018-09-23T17:09:57.655Z,67.17
2018-09-23T17:12:27.160Z,67.41
2018-09-23T17:14:57.667Z,67.61
2018-09-23T17:17:27.617Z,66.78
2018-09-23T17:19:58.376Z,67.46
2018-09-23T17:22:27.995Z,66.43
2018-09-23T17:24:59.007Z,67.30
2018-09-23T17:27:28.601Z,67.04
2018-09-23T17:29:57.931Z,66.84
2018-09-23T17:32:27.405Z,66.58
2018-09-23T17:34:56.948Z,66.39
2018-09-23T17:37:26.582Z,66.63
2018-09-23T17:39:56.066Z,66.21
2018-09-23T17:42:25.542Z,66.72
2018-09-23T17:44:54.983Z,67.10
2018-09-23T17:47:24.538Z,65.90
2018-09-23T17:49:53.948Z,66.96
2018-09-23T17:52:23.442Z,68.09
2018-09-23T17:54:53.012Z,67.48
2018-09-23T17:57:22.785Z,67.55
2018-09-23T17:59:52.972Z,68.01
2018-09-23T18:02:22.413Z,69.77
2018-09-23T18:04:51.886Z,69.16
2018-09-23T18:07:21.404Z,69.94
2018-09-23T18:09:51.302Z,70.05
2018-09-23T18:12:21.734Z,70.96
2018-09-23T18:14:51.747Z,71.00
2018-09-23T18:17:21.307Z,71.08
2018-09-23T18:19:51.091Z,71.82
2018-09-23T18:22:21.084Z,72.69
2018-09-23T18:24:51.583Z,72.55
2018-09-23T18:27:21.114Z,72.67
2018-09-23T18:29:51.779Z,72.94
2018-09-23T18:32:21.883Z,73.73
2018-09-23T18:34:51.409Z,73.49
2018-09-23T18:37:21.291Z,73.88
2018-09-23T18:39:51.102Z,73.45
2018-09-23T18:42:20.922Z,73.37
2018-09-23T18:44:51.051Z,73.04
2018-09-23T18:47:20.703Z,74.28
2018-09-23T18:49:50.281Z,74.03
2018-09-23T18:52:20.369Z,74.46
2018-09-23T18:54:56.442Z,75.05
2018-09-23T18:57:26.243Z,74.88
2018-09-23T18:59:55.725Z,74.82
2018-09-23T19:02:25.336Z,74.37
2018-09-23T19:04:55.317Z,74.31
2018-09-23T19:07:24.865Z,74.36
2018-09-23T19:09:54.295Z,75.01
2018-09-23T19:12:23.910Z,74.99
2018-09-23T19:14:53.473Z,74.06
2018-09-23T19:17:22.922Z,74.02
2018-09-23T19:19:57.716Z,73.91
2018-09-23T19:22:32.398Z,74.37
2018-09-23T19:25:02.174Z,74.35
2018-09-23T19:27:31.592Z,74.45
2018-09-23T19:30:01.080Z,74.21
2018-09-23T19:32:30.798Z,75.09
2018-09-23T19:35:01.559Z,74.71
2018-09-23T19:37:31.202Z,74.95
2018-09-23T19:40:00.846Z,73.91
2018-09-23T19:45:17.593Z,73.45
2018-09-23T19:47:47.801Z,74.17
2018-09-23T19:50:17.470Z,73.65
2018-09-23T19:52:47.017Z,73.61
2018-09-23T19:55:16.586Z,73.18
2018-09-23T19:57:46.044Z,73.28
2018-09-23T20:00:15.584Z,73.38
2018-09-23T20:02:45.115Z,73.26
2018-09-23T20:05:14.676Z,73.20
2018-09-23T20:07:45.010Z,73.27
2018-09-23T20:10:14.361Z,73.19
2018-09-23T20:12:43.747Z,73.60
2018-09-23T20:15:17.104Z,73.95
2018-09-23T20:17:47.294Z,73.52
2018-09-23T20:20:16.831Z,73.71
2018-09-23T20:22:46.285Z,74.30
2018-09-23T20:25:15.818Z,73.97
2018-09-23T20:27:45.563Z,73.78
2018-09-23T20:30:15.207Z,74.11
2018-09-23T20:32:45.660Z,74.40
2018-09-23T20:35:15.139Z,74.38
2018-09-23T20:37:44.718Z,74.61
2018-09-23T20:40:14.192Z,74.92
2018-09-23T20:42:43.625Z,74.80
2018-09-23T20:45:13.229Z,74.84
2018-09-23T20:47:42.692Z,75.16
2018-09-23T20:50:12.408Z,75.39
2018-09-23T20:52:41.935Z,75.13
2018-09-23T20:55:13.445Z,74.65
2018-09-23T20:57:43.070Z,75.31
2018-09-23T21:00:12.579Z,75.13
2018-09-23T21:02:42.036Z,74.18
2018-09-23T21:05:11.464Z,74.91
2018-09-23T21:07:41.078Z,75.14
2018-09-23T21:10:10.566Z,74.95
2018-09-23T21:12:39.981Z,75.43
2018-09-23T21:15:10.067Z,74.80
2018-09-23T21:17:39.700Z,74.72
2018-09-23T21:20:09.622Z,74.57
2018-09-23T21:22:39.096Z,75.08
2018-09-23T21:25:08.810Z,74.18
2018-09-23T21:27:38.457Z,74.48
2018-09-23T21:30:08.156Z,74.19
2018-09-23T21:32:38.734Z,73.64
2018-09-23T21:35:08.571Z,73.25
2018-09-23T21:37:39.088Z,73.89
2018-09-23T21:40:09.318Z,74.27
2018-09-23T21:42:39.175Z,74.83
2018-09-23T21:45:09.044Z,75.00
2018-09-23T21:47:38.629Z,74.18
2018-09-23T21:50:08.382Z,74.86
2018-09-23T21:52:37.884Z,75.21
2018-09-23T21:55:07.447Z,75.44
2018-09-23T21:57:37.116Z,75.28
2018-09-23T22:00:08.774Z,75.16
2018-09-23T22:02:38.963Z,75.02
2018-09-23T22:05:08.960Z,74.69
2018-09-23T22:07:38.515Z,75.52
2018-09-23T22:10:07.914Z,75.68
2018-09-23T22:12:39.803Z,75.00
2018-09-23T22:15:13.607Z,75.88
2018-09-23T22:17:43.229Z,75.24
2018-09-23T22:20:12.702Z,75.32
2018-09-23T22:22:42.298Z,75.37
2018-09-23T22:25:11.889Z,75.29
2018-09-23T22:27:41.438Z,75.47
2018-09-23T22:30:10.936Z,74.44
2018-09-23T22:32:40.526Z,74.69
2018-09-23T22:35:10.643Z,74.85
2018-09-23T22:37:40.516Z,74.51
2018-09-23T22:40:10.328Z,75.08
2018-09-23T22:42:39.939Z,75.91
2018-09-23T22:45:09.356Z,76.34
2018-09-23T22:47:38.834Z,75.87
2018-09-23T22:50:08.279Z,75.68
2018-09-23T22:52:37.769Z,75.50
2018-09-23T22:55:07.599Z,75.48
2018-09-23T22:57:38.014Z,75.51
2018-09-23T23:00:07.728Z,75.03
2018-09-23T23:02:38.129Z,75.12
2018-09-23T23:05:07.659Z,75.05
2018-09-23T23:07:37.828Z,75.71
2018-09-23T23:10:08.076Z,75.81
2018-09-23T23:12:40.472Z,75.85
2018-09-23T23:15:10.781Z,74.92
2018-09-23T23:17:41.239Z,75.85
2018-09-23T23:20:11.424Z,75.55
2018-09-23T23:22:41.339Z,75.90
2018-09-23T23:25:12.055Z,76.05
2018-09-23T23:27:41.601Z,76.33
2018-09-23T23:30:11.131Z,76.54
2018-09-23T23:32:40.711Z,76.94
2018-09-23T23:35:10.765Z,76.18
2018-09-23T23:37:40.439Z,76.26
2018-09-23T23:40:11.491Z,75.94
2018-09-23T23:42:42.049Z,76.00
2018-09-23T23:45:12.659Z,76.16
2018-09-23T23:47:42.210Z,76.22
2018-09-23T23:50:12.009Z,76.62
2018-09-23T23:52:42.590Z,76.75
2018-09-23T23:55:12.388Z,76.26
2018-09-23T23:57:42.793Z,75.73
